Time;durP1;ratioP1;P1;durP2;ratioP2;P2;SDS_P1;SDS_P2;PMS_P1;PMS_P2;Temp;Humidity;BMP_temperature;BMP_pressure;BME280_temperature;BME280_humidity;BME280_pressure;Samples;Min_cycle;Max_cycle;Signal;HPM_P1;HPM_P2
2022/11/10 00:00:14;;;;;;;32.90;25.73;;;;;;;9.46;57.29;100235.97;5014618;28;20040;-81
2022/11/10 00:02:42;;;;;;;30.98;24.02;;;;;;;9.24;57.10;100211.75;5014456;28;20144;-81
2022/11/10 00:05:09;;;;;;;30.67;24.42;;;;;;;9.98;57.19;100347.59;5014578;28;20022;-80
2022/11/10 00:07:35;;;;;;;33.60;25.85;;;;;;;10.00;57.82;100344.81;5014357;28;20499;-80
2022/11/10 00:10:00;;;;;;;31.83;24.05;;;;;;;8.99;57.24;100188.84;5014346;28;20038;-80
2022/11/10 00:12:25;;;;;;;36.03;27.75;;;;;;;9.05;57.10;100208.47;5014162;28;20113;-81
2022/11/10 00:17:35;;;;;;;32.42;24.95;;;;;;;9.53;57.36;100308.19;5014211;28;20056;-80
2022/11/10 00:20:02;;;;;;;64.95;42.25;;;;;;;8.65;57.55;100186.03;5014101;28;20490;-80
2022/11/10 00:22:27;;;;;;;52.15;34.50;;;;;;;8.86;57.91;100222.59;5014182;28;20049;-80
2022/11/10 00:24:52;;;;;;;35.53;26.25;;;;;;;8.99;57.70;100264.38;5014117;28;20101;-80
2022/11/10 00:27:18;;;;;;;28.25;22.35;;;;;;;8.53;57.66;100163.53;5013967;28;20410;-80
2022/11/10 00:29:43;;;;;;;31.02;23.55;;;;;;;8.91;57.71;100222.97;5013998;28;20415;-80
2022/11/10 00:32:09;;;;;;;27.08;21.48;;;;;;;9.62;57.95;100330.16;5014097;28;20141;-80
2022/11/10 00:34:35;;;;;;;32.45;25.73;;;;;;;9.24;57.76;100266.25;5013940;28;20101;-79
2022/11/10 00:37:01;;;;;;;32.35;22.38;;;;;;;8.42;57.56;100129.56;5013851;28;20494;-81
2022/11/10 00:39:26;;;;;;;33.17;25.23;;;;;;;9.64;57.99;100325.56;5013887;28;20094;-80
2022/11/10 00:41:52;;;;;;;29.50;23.05;;;;;;;9.31;57.90;100267.31;5013709;28;20046;-78
2022/11/10 00:44:17;;;;;;;31.90;24.27;;;;;;;8.40;57.25;100111.28;5013796;28;20481;-80
2022/11/10 00:46:43;;;;;;;31.08;23.92;;;;;;;7.84;57.29;100024.69;5013642;28;20022;-78
2022/11/10 00:49:08;;;;;;;28.35;23.60;;;;;;;9.18;57.33;100230.81;5012265;28;20475;-80
2022/11/10 00:51:34;;;;;;;31.17;24.92;;;;;;;9.01;56.99;100191.31;5013263;28;20026;-80
2022/11/10 00:53:59;;;;;;;29.38;23.75;;;;;;;9.53;57.16;100273.91;5013340;28;20109;-80
2022/11/10 00:56:25;;;;;;;30.40;23.85;;;;;;;9.69;56.93;100299.59;5013295;28;20108;-80
2022/11/10 00:58:50;;;;;;;30.95;23.00;;;;;;;8.97;57.00;100182.06;5013504;28;20040;-80
2022/11/10 01:01:18;;;;;;;30.02;23.15;;;;;;;9.68;57.12;100306.69;5013436;28;20036;-80
2022/11/10 01:03:44;;;;;;;33.83;25.60;;;;;;;8.49;57.24;100125.34;5013314;28;20479;-80
2022/11/10 01:06:12;;;;;;;28.75;22.27;;;;;;;8.37;57.31;100118.66;5013316;28;20104;-80
2022/11/10 01:08:38;;;;;;;36.22;24.73;;;;;;;8.93;57.32;100201.78;5011949;28;20061;-80
2022/11/10 01:11:09;;;;;;;29.17;22.20;;;;;;;9.49;57.34;100299.75;5013235;28;20029;-80
2022/11/10 01:13:36;;;;;;;27.23;21.23;;;;;;;8.29;57.15;100104.41;5013203;28;20113;-80
2022/11/10 01:16:16;;;;;;;28.90;21.73;;;;;;;9.41;57.38;100298.84;5013156;28;20037;-81
2022/11/10 01:18:42;;;;;;;27.92;23.17;;;;;;;8.90;57.41;100206.34;5013113;28;20026;-80
2022/11/10 01:21:08;;;;;;;27.13;21.58;;;;;;;9.30;57.17;100305.19;5013096;28;20572;-79
2022/11/10 01:23:34;;;;;;;30.95;22.80;;;;;;;9.08;57.29;100248.50;5013051;28;20026;-80
2022/11/10 01:26:02;;;;;;;31.38;24.92;;;;;;;9.38;57.22;100286.81;5013015;28;20491;-80
2022/11/10 01:28:28;;;;;;;33.10;25.45;;;;;;;9.39;56.88;100287.63;5012815;28;20026;-80
2022/11/10 01:31:04;;;;;;;29.05;22.50;;;;;;;9.36;57.23;100294.03;5012901;28;20083;-80
2022/11/10 01:33:30;;;;;;;28.98;22.60;;;;;;;8.83;57.27;100200.03;5012730;28;20025;-78
2022/11/10 01:35:56;;;;;;;31.83;24.10;;;;;;;9.36;56.66;100306.38;5012680;28;20030;-80
2022/11/10 01:38:22;;;;;;;27.33;22.42;;;;;;;7.85;56.89;100066.63;5011279;28;20117;-80
2022/11/10 01:40:48;;;;;;;27.23;21.90;;;;;;;9.11;56.97;100261.38;5012497;28;20100;-80
2022/11/10 01:43:14;;;;;;;28.88;22.95;;;;;;;9.34;57.00;100298.63;5012666;28;20064;-81
2022/11/10 01:45:58;;;;;;;28.27;22.77;;;;;;;9.27;56.88;100288.84;5012667;28;20082;-78
2022/11/10 01:48:35;;;;;;;27.17;21.20;;;;;;;9.25;57.33;100294.25;5012548;28;20521;-80
2022/11/10 01:51:12;;;;;;;30.98;22.45;;;;;;;8.59;57.48;100199.78;5012662;28;20049;-80
2022/11/10 01:53:41;;;;;;;29.38;23.25;;;;;;;8.80;57.63;100231.91;5012411;28;20029;-80
2022/11/10 01:56:09;;;;;;;28.88;22.45;;;;;;;9.02;57.59;100274.63;5012363;28;20025;-80
2022/11/10 01:58:39;;;;;;;28.05;23.60;;;;;;;7.72;57.37;100081.06;5011184;28;20072;-80
2022/11/10 02:01:06;;;;;;;31.30;24.33;;;;;;;8.43;57.55;100181.19;5012074;28;20036;-80
2022/11/10 02:03:39;;;;;;;28.35;22.92;;;;;;;9.20;57.33;100291.25;5012138;28;20097;-80
2022/11/10 02:06:05;;;;;;;32.22;22.98;;;;;;;8.90;57.97;100245.84;5012178;28;20033;-80
2022/11/10 02:08:31;;;;;;;30.63;23.65;;;;;;;8.14;57.55;100116.38;5012058;28;20092;-80
2022/11/10 02:10:56;;;;;;;28.48;22.45;;;;;;;8.88;57.25;100244.34;5012078;28;20045;-79
2022/11/10 02:13:22;;;;;;;27.52;21.63;;;;;;;7.89;57.78;100096.06;5010796;28;20037;-79
2022/11/10 02:15:47;;;;;;;29.70;23.15;;;;;;;9.10;57.72;100314.22;5012068;28;20037;-80
2022/11/10 02:18:13;;;;;;;29.13;21.95;;;;;;;8.25;57.43;100173.25;5011986;28;20060;-79
2022/11/10 02:20:43;;;;;;;32.95;22.60;;;;;;;7.67;57.18;100073.63;5011838;28;20033;-80
2022/11/10 02:23:33;;;;;;;30.25;22.77;;;;;;;8.49;57.88;100212.19;5012326;28;20037;-80
2022/11/10 02:26:00;;;;;;;28.45;21.48;;;;;;;7.76;57.62;100095.59;5011900;28;20109;-81
2022/11/10 02:28:26;;;;;;;25.15;19.60;;;;;;;8.35;57.78;100197.72;5011720;28;20487;-80
2022/11/10 02:30:52;;;;;;;30.58;22.77;;;;;;;7.48;57.05;100068.47;5011786;28;20037;-80
2022/11/10 02:33:18;;;;;;;30.35;22.73;;;;;;;8.96;57.66;100296.28;5011809;28;20061;-80
2022/11/10 02:35:45;;;;;;;32.58;24.55;;;;;;;8.98;57.15;100302.25;5011774;28;20475;-80
2022/11/10 02:38:10;;;;;;;32.42;23.90;;;;;;;8.62;57.17;100257.41;5011741;28;20034;-80
2022/11/10 02:40:36;;;;;;;34.72;26.05;;;;;;;8.47;57.08;100236.03;5011635;28;20513;-80
2022/11/10 02:43:05;;;;;;;32.40;24.65;;;;;;;8.15;57.52;100225.06;5011818;28;20026;-80
2022/11/10 02:45:30;;;;;;;37.88;27.92;;;;;;;8.86;57.51;100320.03;5011870;28;20018;-80
2022/11/10 02:47:56;;;;;;;32.03;23.58;;;;;;;8.47;57.42;100258.88;5011713;28;20483;-81
2022/11/10 02:50:22;;;;;;;33.60;25.80;;;;;;;8.37;57.56;100237.88;5011987;28;20033;-80
2022/11/10 02:52:47;;;;;;;32.40;25.58;;;;;;;8.87;57.52;100335.69;5011494;28;20034;-81
2022/11/10 02:55:12;;;;;;;35.65;24.73;;;;;;;7.54;57.47;100094.16;5011605;28;20036;-80
2022/11/10 02:57:38;;;;;;;32.92;22.98;;;;;;;8.17;56.92;100213.41;5011551;28;20524;-80
2022/11/10 03:00:05;;;;;;;34.38;23.35;;;;;;;8.59;57.19;100323.50;5011518;28;20030;-80
2022/11/10 03:02:31;;;;;;;29.85;23.90;;;;;;;8.72;57.31;100374.00;5010099;28;20036;-80
2022/11/10 03:04:56;;;;;;;27.65;23.00;;;;;;;7.90;57.22;100202.88;5011255;28;20018;-81
2022/11/10 03:07:22;;;;;;;30.73;22.67;;;;;;;8.49;57.36;100285.88;5011136;28;20523;-80
2022/11/10 03:09:47;;;;;;;30.60;22.50;;;;;;;7.86;57.38;100202.34;5011565;28;20109;-81
2022/11/10 03:12:12;;;;;;;30.40;21.98;;;;;;;8.44;57.63;100290.75;5010590;28;20084;-80
2022/11/10 03:14:38;;;;;;;26.48;20.92;;;;;;;8.58;57.69;100316.59;5015314;28;20092;-81
2022/11/10 03:17:03;;;;;;;29.33;21.80;;;;;;;8.20;57.98;100270.19;5015202;28;20088;-80
2022/11/10 03:19:28;;;;;;;29.95;22.95;;;;;;;7.88;58.28;100207.47;5015198;28;20022;-80
2022/11/10 03:21:54;;;;;;;28.38;19.73;;;;;;;8.19;58.10;100263.28;5013934;28;20030;-80
2022/11/10 03:24:19;;;;;;;26.98;20.33;;;;;;;8.00;58.14;100232.59;5013993;28;20121;-80
2022/11/10 03:26:45;;;;;;;32.22;21.75;;;;;;;8.47;57.99;100322.03;5015188;28;20032;-81
2022/11/10 03:29:10;;;;;;;29.92;21.95;;;;;;;7.88;57.70;100223.22;5014949;28;20029;-80
2022/11/10 03:31:35;;;;;;;26.58;21.33;;;;;;;8.25;58.24;100281.09;5015086;28;20061;-80
2022/11/10 03:34:01;;;;;;;29.95;22.50;;;;;;;8.34;57.89;100287.34;5015067;28;20031;-80
2022/11/10 03:36:26;;;;;;;28.48;21.02;;;;;;;7.96;57.99;100228.59;5014980;28;20030;-80
2022/11/10 03:38:52;;;;;;;27.63;22.58;;;;;;;8.19;57.85;100258.00;5014897;28;20026;-80
2022/11/10 03:41:17;;;;;;;43.72;29.55;;;;;;;8.51;57.62;100304.97;5014823;28;20498;-81
2022/11/10 03:43:42;;;;;;;47.05;30.65;;;;;;;8.02;57.75;100222.75;5014981;28;20044;-80
2022/11/10 03:46:08;;;;;;;43.33;29.30;;;;;;;8.66;57.17;100318.47;5014912;28;20030;-80
2022/11/10 03:48:33;;;;;;;32.63;24.67;;;;;;;8.32;57.05;100261.13;5014694;28;20396;-80
2022/11/10 03:50:59;;;;;;;31.83;24.45;;;;;;;8.01;57.08;100213.22;5014437;28;20025;-80
2022/11/10 03:53:24;;;;;;;31.75;23.35;;;;;;;7.81;57.35;100191.44;5014443;28;20087;-80
2022/11/10 03:55:50;;;;;;;29.67;23.33;;;;;;;8.17;57.20;100267.81;5014589;28;20026;-79
2022/11/10 03:58:15;;;;;;;29.67;22.23;;;;;;;8.57;57.75;100328.09;5014525;28;20530;-80
2022/11/10 04:00:40;;;;;;;32.85;23.10;;;;;;;7.32;57.53;100145.22;5014688;28;20030;-80
2022/11/10 04:03:06;;;;;;;28.40;21.05;;;;;;;8.27;58.07;100298.41;5014465;28;20481;-80
2022/11/10 04:11:00;;;;;;;30.08;21.30;;;;;;;7.92;57.81;100243.00;5014691;28;20036;-80
2022/11/10 04:16:10;;;;;;;32.28;23.02;;;;;;;8.42;57.86;100338.25;5014464;28;20513;-80
2022/11/10 04:18:35;;;;;;;30.50;21.88;;;;;;;8.55;57.79;100337.94;5012883;28;20025;-79
2022/11/10 04:21:02;;;;;;;30.63;22.52;;;;;;;8.00;57.55;100268.59;5014097;28;20545;-80
2022/11/10 04:23:33;;;;;;;30.13;22.33;;;;;;;7.96;57.85;100276.75;5013910;28;20022;-80
2022/11/10 04:29:07;;;;;;;27.58;21.27;;;;;;;8.29;58.18;100324.56;5001845;28;20034;-80
2022/11/10 04:31:36;;;;;;;29.77;22.58;;;;;;;8.53;58.16;100351.22;5012502;28;20465;-81
2022/11/10 04:34:01;;;;;;;29.77;23.55;;;;;;;8.54;57.96;100347.63;5013962;28;20033;-79
2022/11/10 04:36:29;;;;;;;27.63;22.38;;;;;;;8.59;58.09;100355.91;5012709;28;20029;-81
2022/11/10 04:38:55;;;;;;;33.47;22.83;;;;;;;8.66;57.95;100358.78;5013761;28;20061;-80
2022/11/10 04:41:22;;;;;;;63.88;39.53;;;;;;;8.69;57.80;100376.94;5012557;28;20115;-81
2022/11/10 04:43:48;;;;;;;47.70;28.98;;;;;;;7.96;57.92;100249.63;5013737;28;20108;-80
2022/11/10 04:46:21;;;;;;;44.45;26.42;;;;;;;8.45;58.43;100337.97;5013654;28;20057;-80
2022/11/10 04:48:47;;;;;;;41.65;26.00;;;;;;;8.63;58.06;100356.44;5013727;28;20518;-79
2022/11/10 04:51:13;;;;;;;46.10;27.45;;;;;;;7.67;58.52;100201.59;5012307;28;20034;-80
2022/11/10 04:53:38;;;;;;;50.35;30.17;;;;;;;8.34;58.63;100326.81;5012333;28;20157;-78
2022/11/10 04:56:04;;;;;;;59.90;34.17;;;;;;;8.05;58.91;100284.75;5012221;28;20245;-80
2022/11/10 04:58:29;;;;;;;62.83;34.50;;;;;;;7.59;58.57;100215.44;5013359;28;20032;-80
2022/11/10 05:00:55;;;;;;;63.17;33.58;;;;;;;8.44;59.33;100336.31;5013169;28;20022;-80
2022/11/10 05:03:20;;;;;;;63.58;34.47;;;;;;;7.93;59.12;100260.44;5013151;28;20419;-80
2022/11/10 05:05:45;;;;;;;69.10;34.88;;;;;;;8.40;59.08;100324.41;5013235;28;20088;-80
2022/11/10 05:08:11;;;;;;;66.47;34.67;;;;;;;7.85;59.50;100237.50;5013063;28;20180;-80
2022/11/10 05:10:37;;;;;;;72.25;37.78;;;;;;;7.78;60.04;100256.63;5011974;28;20418;-80
2022/11/10 05:13:03;;;;;;;71.32;35.20;;;;;;;7.79;60.55;100239.88;5013186;28;20113;-80
2022/11/10 05:15:30;;;;;;;81.80;37.00;;;;;;;8.68;60.54;100379.72;5013000;28;20026;-80
2022/11/10 05:17:56;;;;;;;85.53;38.75;;;;;;;8.70;60.71;100390.94;5012943;28;20044;-80
2022/11/10 05:20:23;;;;;;;83.15;40.63;;;;;;;8.41;60.81;100333.13;5012899;28;20495;-80
2022/11/10 05:25:37;;;;;;;153.07;44.28;;;;;;;8.74;61.16;100365.97;5013000;28;20119;-80
2022/11/10 05:28:04;;;;;;;84.70;40.30;;;;;;;8.84;61.15;100383.38;5012643;28;20092;-80
2022/11/10 05:30:29;;;;;;;88.40;40.65;;;;;;;8.89;61.52;100396.09;5012971;28;20520;-81
2022/11/10 05:32:55;;;;;;;86.85;40.08;;;;;;;8.27;61.38;100318.63;5012782;28;20062;-81
2022/11/10 05:35:20;;;;;;;90.13;40.40;;;;;;;8.88;62.04;100397.91;5012130;28;20053;-80
2022/11/10 05:37:45;;;;;;;92.63;42.40;;;;;;;8.95;61.81;100392.91;5012713;28;20057;-80
2022/11/10 05:40:11;;;;;;;153.38;47.67;;;;;;;8.28;62.11;100286.09;5012908;28;20123;-80
2022/11/10 05:42:45;;;;;;;91.80;44.53;;;;;;;7.83;62.53;100222.84;5011212;28;20029;-81
2022/11/10 05:45:10;;;;;;;94.97;41.33;;;;;;;8.69;62.43;100369.03;5012877;28;20522;-80
2022/11/10 05:47:36;;;;;;;165.80;64.78;;;;;;;8.87;63.05;100398.06;5012460;28;20030;-80
2022/11/10 05:50:02;;;;;;;114.47;57.28;;;;;;;8.37;63.36;100329.97;5012647;28;20026;-81
2022/11/10 05:52:28;;;;;;;103.22;50.55;;;;;;;8.52;63.42;100351.38;5012178;28;20491;-80
2022/11/10 05:54:54;;;;;;;103.30;48.83;;;;;;;8.17;63.32;100289.69;5012418;28;20041;-80
2022/11/10 05:57:20;;;;;;;98.15;45.08;;;;;;;8.14;63.06;100307.56;5012372;28;20029;-80
2022/11/10 05:59:45;;;;;;;119.18;43.78;;;;;;;8.67;63.77;100363.09;5012064;28;20049;-80
2022/11/10 06:02:10;;;;;;;103.63;45.10;;;;;;;8.52;63.79;100346.94;5012085;28;20483;-80
2022/11/10 06:04:36;;;;;;;85.40;42.95;;;;;;;8.39;63.86;100324.56;5012444;28;20108;-80
2022/11/10 06:07:01;;;;;;;84.95;44.35;;;;;;;8.59;63.95;100341.94;5012205;28;20129;-80
2022/11/10 06:09:27;;;;;;;136.95;49.10;;;;;;;8.94;64.19;100393.06;5012206;28;20538;-80
2022/11/10 06:11:52;;;;;;;151.93;54.78;;;;;;;8.89;64.11;100375.03;5010872;28;20026;-80
2022/11/10 06:14:17;;;;;;;123.28;50.25;;;;;;;8.92;64.32;100377.41;5012001;28;20037;-80
2022/11/10 06:16:43;;;;;;;118.25;47.47;;;;;;;8.53;64.44;100331.97;5011846;28;20034;-80
2022/11/10 06:19:08;;;;;;;125.45;45.47;;;;;;;8.91;64.79;100375.72;5012207;28;20026;-80
2022/11/10 06:21:34;;;;;;;135.65;52.05;;;;;;;9.29;64.98;100435.28;5011964;28;20112;-80
2022/11/10 06:23:59;;;;;;;134.77;51.33;;;;;;;7.00;64.95;100078.16;5011839;28;20057;-80
2022/11/10 06:26:24;;;;;;;163.15;55.40;;;;;;;8.25;65.58;100281.94;5011722;28;20419;-80
2022/11/10 06:28:50;;;;;;;124.18;52.25;;;;;;;8.28;65.42;100276.38;5011747;28;20057;-81
2022/11/10 06:31:15;;;;;;;128.40;52.17;;;;;;;8.31;65.66;100279.69;5011860;28;20391;-80
2022/11/10 06:33:41;;;;;;;112.47;49.47;;;;;;;8.15;65.51;100241.66;5011655;28;20030;-80
2022/11/10 06:36:08;;;;;;;83.93;45.15;;;;;;;9.48;65.48;100465.97;5011540;28;20030;-79
2022/11/10 06:38:33;;;;;;;105.63;49.85;;;;;;;9.13;65.40;100377.13;5011593;28;20025;-80
2022/11/10 06:40:58;;;;;;;96.43;49.22;;;;;;;8.91;65.62;100338.84;5011488;28;20104;-78
2022/11/10 06:43:24;;;;;;;98.13;49.22;;;;;;;8.17;65.29;100228.38;5011376;28;20030;-80
2022/11/10 06:45:49;;;;;;;100.13;48.95;;;;;;;9.33;65.43;100393.66;5010842;28;20092;-80
2022/11/10 06:48:15;;;;;;;88.78;45.75;;;;;;;9.74;65.63;100471.38;5011205;28;20030;-80
2022/11/10 06:50:40;;;;;;;90.78;42.42;;;;;;;9.79;65.68;100490.22;5010850;28;20037;-81
2022/11/10 06:53:06;;;;;;;89.38;43.50;;;;;;;9.83;65.45;100454.63;5009741;28;20034;-79
2022/11/10 06:55:31;;;;;;;80.38;44.50;;;;;;;9.49;65.90;100401.72;5010263;28;20495;-79
2022/11/10 06:57:57;;;;;;;75.43;40.30;;;;;;;9.91;65.71;100451.25;4999494;28;20392;-80
2022/11/10 07:00:24;;;;;;;63.33;35.90;;;;;;;9.74;65.97;100431.81;5004274;28;20164;-81
2022/11/10 07:03:04;;;;;;;91.22;38.13;;;;;;;9.84;66.45;100422.84;5011158;28;20116;-80
2022/11/10 07:05:31;;;;;;;86.00;39.47;;;;;;;9.66;66.45;100390.38;5002533;28;20034;-80
2022/11/10 07:08:04;;;;;;;102.60;45.17;;;;;;;10.09;66.33;100452.06;5009576;28;20103;-80
2022/11/10 07:10:30;;;;;;;80.88;39.13;;;;;;;8.86;66.72;100270.81;4994675;28;20022;-78
2022/11/10 07:13:01;;;;;;;64.38;33.88;;;;;;;9.35;67.11;100329.28;4991686;28;20033;-81
2022/11/10 07:15:26;;;;;;;60.28;33.15;;;;;;;10.24;66.61;100457.66;4991742;28;20514;-80
2022/11/10 07:17:52;;;;;;;94.97;28.75;;;;;;;10.25;67.23;100443.47;5010329;28;20022;-80
2022/11/10 07:20:17;;;;;;;44.20;26.88;;;;;;;8.48;66.63;100164.00;5011363;28;20068;-80
2022/11/10 07:22:43;;;;;;;39.72;24.92;;;;;;;10.19;67.13;100431.69;5010207;28;20427;-78
2022/11/10 07:25:09;;;;;;;63.33;28.35;;;;;;;9.99;67.28;100396.75;5005388;28;20453;-80
2022/11/10 07:27:34;;;;;;;47.90;27.15;;;;;;;9.68;66.98;100330.41;4994437;28;20491;-81
2022/11/10 07:29:59;;;;;;;53.22;29.42;;;;;;;10.53;67.12;100457.38;5010132;28;20390;-79
2022/11/10 07:32:25;;;;;;;72.43;28.65;;;;;;;10.56;66.96;100489.59;5002912;28;20034;-80
2022/11/10 07:34:50;;;;;;;52.45;28.90;;;;;;;10.58;67.00;100463.84;5010901;28;20029;-80
2022/11/10 07:37:16;;;;;;;56.88;31.83;;;;;;;9.73;67.40;100369.50;5010839;28;20033;-81
2022/11/10 07:39:41;;;;;;;49.03;27.38;;;;;;;10.31;67.76;100419.94;5010910;28;20033;-82
2022/11/10 07:42:07;;;;;;;45.60;27.15;;;;;;;10.67;67.46;100465.56;5003185;28;20029;-81
2022/11/10 07:44:32;;;;;;;56.22;31.48;;;;;;;10.34;67.40;100395.84;4992153;28;20030;-81
2022/11/10 07:46:58;;;;;;;46.70;28.65;;;;;;;9.85;67.26;100308.44;5006081;28;20033;-82
2022/11/10 07:49:24;;;;;;;47.72;29.02;;;;;;;10.06;66.71;100349.47;5010803;28;20109;-80
2022/11/10 07:51:49;;;;;;;47.75;28.67;;;;;;;9.53;67.36;100255.44;5007840;28;20506;-78
2022/11/10 07:54:14;;;;;;;64.97;32.60;;;;;;;10.63;67.07;100429.88;4991851;28;20113;-80
2022/11/10 07:56:41;;;;;;;45.00;28.27;;;;;;;10.47;67.09;100372.53;4999536;28;20145;-81
2022/11/10 07:59:06;;;;;;;51.67;30.77;;;;;;;10.56;66.69;100394.53;5002546;28;20034;-80
2022/11/10 08:01:32;;;;;;;57.53;33.83;;;;;;;10.68;67.10;100401.19;4995024;28;20034;-81
2022/11/10 08:03:58;;;;;;;61.22;34.83;;;;;;;10.35;67.13;100331.53;5009690;28;20028;-80
2022/11/10 08:06:23;;;;;;;58.90;34.28;;;;;;;11.25;66.78;100480.75;5000613;28;20029;-80
2022/11/10 08:08:49;;;;;;;54.83;34.08;;;;;;;10.57;66.51;100353.09;5002160;28;20053;-81
2022/11/10 08:11:14;;;;;;;69.03;39.55;;;;;;;10.60;66.48;100358.91;5002028;28;20026;-80
2022/11/10 08:13:40;;;;;;;48.65;30.73;;;;;;;10.92;66.75;100416.31;5007686;28;20052;-80
2022/11/10 08:16:06;;;;;;;63.28;37.33;;;;;;;11.36;66.76;100472.50;4997856;28;20045;-80
2022/11/10 08:18:31;;;;;;;60.35;37.63;;;;;;;11.07;66.29;100396.22;4993669;28;20041;-80
2022/11/10 08:21:00;;;;;;;72.55;40.97;;;;;;;9.86;66.89;100228.34;5010421;28;20046;-80
2022/11/10 08:23:27;;;;;;;64.18;37.35;;;;;;;11.35;65.78;100409.22;5012715;28;20022;-80
2022/11/10 08:25:53;;;;;;;58.67;35.75;;;;;;;11.22;66.71;100377.13;5013725;28;20029;-80
2022/11/10 08:28:18;;;;;;;58.55;38.10;;;;;;;11.88;66.17;100506.72;5004992;28;20037;-80
2022/11/10 08:30:46;;;;;;;67.20;39.58;;;;;;;11.75;65.88;100448.13;5004432;28;20495;-80
2022/11/10 08:33:13;;;;;;;58.95;36.20;;;;;;;11.92;65.77;100476.34;4997422;28;20048;-80
2022/11/10 08:35:43;;;;;;;58.25;36.13;;;;;;;11.62;66.13;100427.44;4994328;28;20031;-81
2022/11/10 08:38:14;;;;;;;57.95;36.22;;;;;;;11.63;66.86;100441.50;4996132;28;20492;-81
2022/11/10 08:40:40;;;;;;;48.35;31.23;;;;;;;10.73;66.46;100303.00;5009017;28;20083;-85
2022/11/10 08:43:07;;;;;;;47.53;31.38;;;;;;;10.91;66.66;100318.72;5001186;28;20085;-81
2022/11/10 08:45:35;;;;;;;43.90;29.05;;;;;;;10.41;66.29;100258.81;5008606;28;20057;-82
2022/11/10 08:48:06;;;;;;;48.63;32.65;;;;;;;12.18;66.34;100489.41;4997790;28;20104;-82
2022/11/10 08:50:32;;;;;;;47.80;31.37;;;;;;;12.23;66.22;100494.22;5009130;28;20034;-82
2022/11/10 08:53:03;;;;;;;47.03;30.42;;;;;;;12.32;65.92;100487.94;5001670;28;20042;-81
2022/11/10 08:55:28;;;;;;;45.53;29.63;;;;;;;11.93;65.86;100414.47;5003577;28;20033;-81
2022/11/10 08:57:58;;;;;;;50.63;31.25;;;;;;;11.72;65.71;100377.03;4995865;28;20419;-81
2022/11/10 09:00:24;;;;;;;47.25;30.45;;;;;;;11.80;65.54;100377.06;5004796;28;20113;-81
2022/11/10 09:02:49;;;;;;;44.67;28.67;;;;;;;11.32;65.90;100309.09;5009103;28;20105;-81
2022/11/10 09:05:15;;;;;;;37.60;26.73;;;;;;;12.26;65.66;100465.59;5011069;28;20095;-82
2022/11/10 09:07:48;;;;;;;41.95;30.27;;;;;;;12.45;65.56;100488.25;4993313;28;20112;-81
2022/11/10 09:10:14;;;;;;;42.65;30.27;;;;;;;12.02;65.47;100429.34;5003132;28;20033;-82
2022/11/10 09:12:40;;;;;;;47.38;29.73;;;;;;;12.47;65.58;100486.25;5006059;28;20423;-82
2022/11/10 09:15:07;;;;;;;45.28;32.17;;;;;;;12.52;65.13;100485.75;5024358;28;20025;-82
2022/11/10 09:17:33;;;;;;;38.83;28.35;;;;;;;11.01;65.25;100253.34;5011395;28;20025;-82
2022/11/10 09:19:58;;;;;;;42.17;29.88;;;;;;;12.64;64.95;100484.44;5012021;28;20096;-81
2022/11/10 09:22:24;;;;;;;45.00;31.85;;;;;;;12.67;65.31;100492.06;5010691;28;20025;-81
2022/11/10 09:24:49;;;;;;;41.95;28.77;;;;;;;12.55;65.26;100450.97;5009475;28;20507;-82
2022/11/10 09:27:15;;;;;;;47.88;32.63;;;;;;;12.67;64.58;100458.44;5015257;28;20037;-82
2022/11/10 09:29:40;;;;;;;46.22;33.50;;;;;;;12.88;64.71;100479.09;5007588;28;20038;-81
2022/11/10 09:32:05;;;;;;;45.95;31.10;;;;;;;12.94;64.83;100474.94;5004319;28;20038;-81
2022/11/10 09:34:31;;;;;;;50.33;32.65;;;;;;;12.87;64.42;100445.63;5005041;28;20034;-81
2022/11/10 09:36:56;;;;;;;41.88;30.85;;;;;;;13.03;64.31;100464.13;5002442;28;20116;-81
2022/11/10 09:39:22;;;;;;;41.20;30.50;;;;;;;12.28;64.18;100325.91;5006324;28;20560;-81
2022/11/10 09:41:47;;;;;;;41.67;30.52;;;;;;;12.83;63.97;100398.44;5005181;28;20026;-81
2022/11/10 09:44:58;;;;;;;41.78;30.38;;;;;;;13.34;63.75;100458.88;5003706;28;20040;-82
2022/11/10 09:47:33;;;;;;;44.70;31.73;;;;;;;13.06;62.97;100370.16;4998703;28;20041;-82
2022/11/10 09:50:00;;;;;;;48.35;37.45;;;;;;;13.67;62.91;100445.47;5003475;28;20033;-82
2022/11/10 09:52:30;;;;;;;46.33;32.65;;;;;;;13.76;62.53;100439.09;5006456;28;20499;-81
2022/11/10 09:55:02;;;;;;;38.58;29.20;;;;;;;13.95;62.26;100446.56;5021003;28;20462;-81
2022/11/10 09:57:28;;;;;;;45.95;34.75;;;;;;;14.11;61.86;100463.38;5003915;28;20037;-82
2022/11/10 09:59:55;;;;;;;42.45;32.67;;;;;;;13.55;61.73;100333.59;4999354;28;20029;-81
2022/11/10 10:02:44;;;;;;;51.05;37.65;;;;;;;13.27;61.27;100274.94;5005098;28;20057;-81
2022/11/10 10:05:50;;;;;;;66.72;50.42;;;;;;;14.44;60.69;100424.97;4992217;28;20030;-81
2022/11/10 10:08:25;;;;;;;46.65;35.67;;;;;;;14.56;60.28;100431.47;4995787;28;20605;-81
2022/11/10 10:11:17;;;;;;;44.42;32.97;;;;;;;14.66;60.07;100425.06;5002937;28;20033;-81
2022/11/10 10:14:23;;;;;;;46.55;35.42;;;;;;;14.74;59.44;100428.47;5009185;28;20112;-82
2022/11/10 10:17:23;;;;;;;41.15;33.20;;;;;;;13.80;58.79;100285.63;5009277;28;20026;-81
2022/11/10 10:20:13;;;;;;;41.70;31.20;;;;;;;14.65;58.54;100412.78;5006165;28;20061;-81
2022/11/10 10:22:46;;;;;;;39.08;31.05;;;;;;;14.68;58.33;100418.56;5009674;28;20025;-81
2022/11/10 10:25:21;;;;;;;43.55;32.95;;;;;;;14.35;57.82;100356.94;5001529;28;20068;-81
2022/11/10 10:28:11;;;;;;;41.17;32.05;;;;;;;13.98;57.85;100283.44;4999521;28;20037;-81
2022/11/10 10:30:39;;;;;;;29.35;24.13;;;;;;;14.42;57.50;100349.91;5008960;28;20145;-81
2022/11/10 10:33:19;;;;;;;39.35;28.45;;;;;;;14.79;57.65;100399.47;4998458;28;20028;-81
2022/11/10 10:35:47;;;;;;;35.20;27.83;;;;;;;14.53;57.12;100344.16;5002182;28;20037;-81
2022/11/10 10:38:20;;;;;;;37.05;30.17;;;;;;;15.00;56.82;100395.28;4992952;28;20492;-81
2022/11/10 10:40:48;;;;;;;36.55;29.92;;;;;;;14.76;56.94;100338.72;4991159;28;20451;-81
2022/11/10 10:43:13;;;;;;;36.45;30.15;;;;;;;15.00;56.34;100358.88;4998357;28;20068;-81
2022/11/10 10:45:41;;;;;;;34.53;29.13;;;;;;;14.77;56.22;100311.13;5006878;28;20113;-81
2022/11/10 10:48:28;;;;;;;38.50;28.98;;;;;;;15.21;55.51;100388.16;5009215;28;20026;-81
2022/11/10 10:50:53;;;;;;;33.20;28.35;;;;;;;14.60;55.64;100288.41;5006896;28;20041;-81
2022/11/10 10:53:21;;;;;;;35.13;26.85;;;;;;;15.30;55.22;100404.84;5007335;28;20034;-81
2022/11/10 10:56:16;;;;;;;34.40;28.85;;;;;;;15.27;55.74;100386.59;4998979;28;20041;-83
2022/11/10 10:58:52;;;;;;;33.10;27.50;;;;;;;15.12;55.42;100359.22;4996764;28;20043;-81
2022/11/10 11:01:37;;;;;;;35.65;27.05;;;;;;;15.30;55.33;100390.72;5002762;28;20495;-81
2022/11/10 11:04:24;;;;;;;35.58;29.48;;;;;;;15.31;55.11;100392.38;4995594;28;20044;-82
2022/11/10 11:07:05;;;;;;;37.17;30.92;;;;;;;14.76;55.17;100296.19;5011290;28;20054;-81
2022/11/10 11:09:43;;;;;;;39.05;28.25;;;;;;;15.40;55.11;100385.91;5022987;28;20029;-82
2022/11/10 11:12:13;;;;;;;33.45;27.75;;;;;;;15.42;55.15;100374.06;5000324;28;20034;-82
2022/11/10 11:14:38;;;;;;;38.40;30.77;;;;;;;14.39;55.02;100230.69;5006486;28;20040;-82
2022/11/10 11:17:18;;;;;;;31.77;26.15;;;;;;;15.45;55.04;100383.50;4990411;28;20035;-82
2022/11/10 11:19:44;;;;;;;35.42;29.08;;;;;;;15.45;55.06;100375.53;4992645;28;20037;-82
2022/11/10 11:22:25;;;;;;;35.65;25.73;;;;;;;15.46;54.80;100379.84;4997388;28;20022;-82
2022/11/10 11:25:05;;;;;;;29.77;25.35;;;;;;;15.45;54.80;100391.50;5002580;28;20475;-81
2022/11/10 11:27:44;;;;;;;35.17;27.10;;;;;;;15.42;54.37;100366.09;4997222;28;20034;-82
2022/11/10 11:30:17;;;;;;;30.55;25.75;;;;;;;15.26;54.49;100343.19;5008811;28;20075;-82
2022/11/10 11:33:24;;;;;;;32.03;26.02;;;;;;;15.42;54.70;100363.41;5007393;28;20026;-81
2022/11/10 11:36:16;;;;;;;28.85;24.95;;;;;;;15.40;54.61;100369.94;5007763;28;20041;-81